Terminal Aerodrome Forecast
Issued by NWS

Home | Current Version | Previous Version | Text Only | Print | Product List | Glossary On
Versions: 1 2 3 4 5 6 7 8 9 10 11 12 13 14 15 16 17 18 19 20 21 22 23 24 25 26 27
000
FTUS44 KLIX 271322 AAB
TAFMCB
TAF AMD
KMCB 271322Z 2713/2812 15008KT 5SM BR BKN006 OVC130
     FM271415 15009KT P6SM BKN015 OVC130
     FM271530 16011KT P6SM SCT020 BKN050 OVC130
     FM280800 VRB03KT P6SM BKN035
     FM281100 VRB03KT P6SM BKN010=

USA.gov is the U.S. government's official web portal to all federal, state and local government web resources and services.